Swineford, Pennsylvania
Current Conditions -  °F | °C
As of 4:53 PM on Thursday 23 Oct 2014 (Local Time) from KSEG Reporting Station
Overcast Overcast  
Wind Chill: 60°   Ceiling: 4200
Heat Index: 60°   Visibility: 10mi
Dew Point: 45°   Wind: 5mph
Humidity: 57%   Direction: NA
Pressure: 29.86"   Gusts: NA
Location:  40.7851°N, 77.0335°W
Report Text: KSEG 232053Z AUTO VRB04KT 10SM OVC042 16/07 A2986 RMK AO2 SLP110 T01560072 58003
Loading
Personal Weather Stations






























Interactive Weather Map
Tropical Storm Tracking
New forecast layout! Learn more

10-Day Weather Forecast

Advertisements
Track Severe Weather on mobile